Time;durP1;ratioP1;P1;durP2;ratioP2;P2;SDS_P1;SDS_P2;PMS_P1;PMS_P2;Temp;Humidity;BMP_temperature;BMP_pressure;BME280_temperature;BME280_humidity;BME280_pressure;Samples;Min_cycle;Max_cycle;Signal;HPM_P1;HPM_P2
2023/08/22 00:00:54;;;;;;;1.57;1.43;;;;;;;23.92;59.88;99135.28;5094489;28;41764;-75
2023/08/22 00:03:22;;;;;;;2.60;1.60;;;;;;;23.88;59.92;99131.22;5112204;28;42786;-75
2023/08/22 00:05:49;;;;;;;2.00;1.80;;;;;;;23.85;60.04;99137.00;5112548;28;42324;-75
2023/08/22 00:08:17;;;;;;;1.73;1.60;;;;;;;23.82;60.19;99137.34;5076802;28;40430;-75
2023/08/22 00:10:44;;;;;;;1.67;1.53;;;;;;;23.80;60.33;99133.09;5111967;28;41776;-75
2023/08/22 00:13:12;;;;;;;2.43;1.53;;;;;;;23.77;60.69;99131.59;5075205;28;41647;-76
2023/08/22 00:15:39;;;;;;;1.67;1.57;;;;;;;23.66;60.78;99118.44;5092959;28;42591;-76
2023/08/22 00:18:09;;;;;;;1.90;1.70;;;;;;;23.73;61.59;99124.88;5075857;28;40935;-76
2023/08/22 00:20:37;;;;;;;1.90;1.70;;;;;;;23.74;61.19;99126.53;5076050;28;41569;-76
2023/08/22 00:23:05;;;;;;;2.93;2.30;;;;;;;23.72;61.44;99125.88;5092916;28;42787;-76
2023/08/22 00:25:32;;;;;;;2.03;1.67;;;;;;;23.61;61.49;99110.03;5093044;28;43176;-76
2023/08/22 00:28:00;;;;;;;1.90;1.80;;;;;;;23.68;61.54;99127.22;5092565;28;40367;-75
2023/08/22 00:30:27;;;;;;;2.40;1.90;;;;;;;23.67;61.45;99122.00;5076094;28;42033;-75
2023/08/22 00:32:55;;;;;;;1.97;1.80;;;;;;;23.65;61.39;99127.56;5075905;28;41954;-76
2023/08/22 00:35:28;;;;;;;2.27;2.07;;;;;;;23.61;61.60;99110.03;5111145;28;42094;-76
2023/08/22 00:37:56;;;;;;;2.17;1.93;;;;;;;23.60;61.36;99116.44;5091346;28;40972;-76
2023/08/22 00:40:23;;;;;;;1.40;1.30;;;;;;;23.41;61.59;99095.13;5075746;28;41620;-75
2023/08/22 00:42:52;;;;;;;2.10;1.70;;;;;;;23.48;61.52;99110.53;5092387;28;42075;-75
2023/08/22 00:45:19;;;;;;;1.60;1.50;;;;;;;23.52;61.77;99122.69;5075584;28;41336;-75
2023/08/22 00:47:47;;;;;;;1.63;1.43;;;;;;;23.50;61.50;99130.13;5076170;28;39988;-76
2023/08/22 00:50:15;;;;;;;1.77;1.67;;;;;;;23.48;61.53;99120.50;5075590;28;40459;-75
2023/08/22 00:52:44;;;;;;;1.97;1.70;;;;;;;23.46;61.77;99117.09;5092223;28;41639;-76
2023/08/22 00:55:13;;;;;;;1.70;1.60;;;;;;;23.44;62.06;99119.13;5076510;28;41529;-76
2023/08/22 00:57:41;;;;;;;3.27;2.00;;;;;;;23.40;62.27;99129.44;5094813;28;38873;-76
2023/08/22 01:00:10;;;;;;;1.87;1.70;;;;;;;23.38;62.26;99128.75;5097232;28;41842;-75
2023/08/22 01:02:39;;;;;;;2.43;2.00;;;;;;;23.35;62.04;99125.56;5079962;28;43069;-75
2023/08/22 01:05:08;;;;;;;2.13;1.70;;;;;;;23.32;62.17;99117.78;5088639;28;41202;-75
2023/08/22 01:07:39;;;;;;;1.83;1.73;;;;;;;23.19;62.27;99102.94;5079953;28;40027;-75
2023/08/22 01:10:13;;;;;;;2.20;2.00;;;;;;;23.26;62.45;99117.44;5093921;28;42624;-76
2023/08/22 01:12:46;;;;;;;1.53;1.43;;;;;;;23.22;62.48;99116.13;5078393;28;41769;-76
2023/08/22 01:15:24;;;;;;;1.80;1.70;;;;;;;23.22;62.83;99117.97;5078632;28;42486;-76
2023/08/22 01:17:53;;;;;;;2.53;1.90;;;;;;;23.17;62.75;99118.47;5079184;28;39998;-76
2023/08/22 01:20:21;;;;;;;1.80;1.70;;;;;;;23.16;62.81;99116.78;5095553;28;41855;-76
2023/08/22 01:22:50;;;;;;;1.50;1.40;;;;;;;23.14;63.24;99117.97;5078627;28;41637;-75
2023/08/22 01:25:18;;;;;;;2.20;2.00;;;;;;;23.00;63.20;99100.56;5095642;28;42256;-76
2023/08/22 01:27:58;;;;;;;2.07;1.63;;;;;;;23.09;63.45;99110.38;5078643;28;39668;-75
2023/08/22 01:30:33;;;;;;;1.63;1.40;;;;;;;22.96;63.58;99091.13;5095424;28;42020;-75
2023/08/22 01:33:07;;;;;;;1.77;1.67;;;;;;;22.99;63.46;99096.22;5094470;28;42824;-75
2023/08/22 01:35:38;;;;;;;1.67;1.57;;;;;;;23.00;63.95;99100.56;5092819;28;42404;-76
2023/08/22 01:38:09;;;;;;;1.87;1.60;;;;;;;23.01;63.97;99107.66;5078810;28;38805;-75
2023/08/22 01:40:38;;;;;;;1.60;1.50;;;;;;;22.72;63.91;99064.09;5092518;28;42313;-76
2023/08/22 01:43:05;;;;;;;1.63;1.53;;;;;;;22.98;63.92;99121.53;5078239;28;41656;-75
2023/08/22 01:45:33;;;;;;;2.03;1.83;;;;;;;22.96;63.73;99114.59;5078255;28;42283;-76
2023/08/22 01:48:01;;;;;;;1.80;1.60;;;;;;;22.94;63.89;99109.38;5095463;28;40942;-76
2023/08/22 01:50:28;;;;;;;1.97;1.50;;;;;;;22.90;64.18;99108.84;5095145;28;40827;-76
2023/08/22 01:52:57;;;;;;;2.23;2.00;;;;;;;22.86;64.29;99106.66;5078401;28;41760;-75
2023/08/22 01:55:27;;;;;;;2.17;1.63;;;;;;;22.83;64.22;99105.13;5095989;28;42312;-75
2023/08/22 01:57:54;;;;;;;1.40;1.30;;;;;;;22.81;64.39;99111.72;5114011;28;41521;-75
2023/08/22 02:00:22;;;;;;;1.70;1.60;;;;;;;22.77;64.61;99111.19;5079351;28;41711;-75
2023/08/22 02:02:50;;;;;;;2.00;1.77;;;;;;;22.75;64.74;99115.06;5079044;28;41688;-75
2023/08/22 02:05:17;;;;;;;2.10;1.90;;;;;;;22.72;64.57;99110.00;5096098;28;42271;-75
2023/08/22 02:07:45;;;;;;;1.93;1.80;;;;;;;22.69;64.62;99107.63;5096098;28;39997;-75
2023/08/22 02:10:13;;;;;;;1.67;1.57;;;;;;;22.65;64.55;99111.66;5095119;28;41801;-75
2023/08/22 02:12:42;;;;;;;2.27;1.60;;;;;;;22.63;64.79;99108.25;5095938;28;41848;-75
2023/08/22 02:15:10;;;;;;;1.97;1.73;;;;;;;22.62;64.87;99106.59;5078851;28;41133;-75
2023/08/22 02:17:38;;;;;;;2.40;1.50;;;;;;;22.58;64.89;99096.13;5095772;28;40722;-75
2023/08/22 02:20:07;;;;;;;2.23;1.80;;;;;;;22.56;65.04;99095.44;5087703;28;41734;-75
2023/08/22 02:22:39;;;;;;;1.80;1.70;;;;;;;22.51;65.57;99087.00;5094602;28;42637;-75
2023/08/22 02:25:08;;;;;;;2.03;1.83;;;;;;;22.55;65.55;99096.47;5069261;28;41465;-75
2023/08/22 02:27:36;;;;;;;2.20;1.80;;;;;;;22.55;66.30;99085.66;5077872;28;38891;-76
2023/08/22 02:30:08;;;;;;;2.20;2.00;;;;;;;22.54;66.33;99078.56;5113001;28;41850;-75
2023/08/22 02:32:35;;;;;;;2.03;1.83;;;;;;;22.53;66.06;99076.03;5094346;28;41704;-75
2023/08/22 02:35:06;;;;;;;1.87;1.77;;;;;;;22.50;66.14;99077.19;5094627;28;41290;-76
2023/08/22 02:37:33;;;;;;;2.87;2.33;;;;;;;22.47;66.06;99077.56;5094533;28;39194;-75
2023/08/22 02:40:06;;;;;;;2.17;1.77;;;;;;;22.45;66.20;99076.88;5077370;28;41123;-75
2023/08/22 02:42:33;;;;;;;2.83;1.90;;;;;;;22.43;66.70;99075.34;5077509;28;43382;-76
2023/08/22 02:45:03;;;;;;;2.77;1.83;;;;;;;22.41;66.67;99069.25;5094224;28;42246;-75
2023/08/22 02:47:32;;;;;;;2.13;1.93;;;;;;;22.38;66.79;99075.84;5112733;28;41532;-75
2023/08/22 02:50:00;;;;;;;2.30;1.97;;;;;;;22.38;66.83;99072.28;5094602;28;41858;-76
2023/08/22 02:52:27;;;;;;;1.80;1.70;;;;;;;22.37;66.73;99076.88;5076966;28;41949;-76
2023/08/22 02:54:55;;;;;;;2.83;2.23;;;;;;;22.34;66.92;99077.19;5095371;28;43217;-75
2023/08/22 02:57:23;;;;;;;2.20;2.00;;;;;;;22.29;67.02;99079.53;5095031;28;40882;-75
2023/08/22 02:59:50;;;;;;;2.13;1.93;;;;;;;22.28;66.85;99077.84;5095415;28;42322;-75
2023/08/22 03:02:18;;;;;;;2.27;1.80;;;;;;;22.27;66.88;99092.34;5095060;28;42684;-76
2023/08/22 03:04:49;;;;;;;2.30;1.90;;;;;;;22.23;67.44;99084.75;5095145;28;42342;-75
2023/08/22 03:07:16;;;;;;;1.87;1.73;;;;;;;22.18;67.66;99087.94;5095034;28;40172;-75
2023/08/22 03:09:45;;;;;;;2.27;1.97;;;;;;;22.18;67.61;99085.22;5094668;28;40974;-75
2023/08/22 03:12:12;;;;;;;2.40;2.03;;;;;;;22.15;67.44;99088.25;5094585;28;42301;-75
2023/08/22 03:14:42;;;;;;;2.40;2.00;;;;;;;22.11;67.18;99097.69;5078167;28;42539;-75
2023/08/22 03:17:10;;;;;;;1.80;1.70;;;;;;;22.08;67.45;99092.63;5076996;28;39247;-75
2023/08/22 03:19:38;;;;;;;2.67;1.90;;;;;;;22.05;67.51;99092.94;5093520;27;42191;-76
2023/08/22 03:22:07;;;;;;;1.93;1.60;;;;;;;22.02;67.20;99098.66;5068541;28;42871;-76
2023/08/22 03:24:37;;;;;;;1.93;1.83;;;;;;;21.97;67.25;99085.66;5076920;28;41126;-76
2023/08/22 03:27:05;;;;;;;2.20;2.00;;;;;;;21.95;67.61;99092.19;5077003;28;38685;-75
2023/08/22 03:29:33;;;;;;;1.93;1.80;;;;;;;21.92;67.51;99092.50;5076983;28;41492;-75
2023/08/22 03:32:00;;;;;;;2.03;1.80;;;;;;;21.88;67.41;99103.63;5094054;28;43524;-75
2023/08/22 03:34:28;;;;;;;2.03;1.63;;;;;;;21.75;67.83;99080.84;5076568;28;41367;-75
2023/08/22 03:36:56;;;;;;;2.10;1.87;;;;;;;21.81;68.02;99096.34;5093806;28;41055;-75
2023/08/22 03:39:25;;;;;;;1.63;1.50;;;;;;;21.73;67.85;99089.06;5076557;28;42037;-77
2023/08/22 03:41:53;;;;;;;2.23;1.77;;;;;;;21.74;68.14;99104.25;5093305;28;43595;-76
2023/08/22 03:44:20;;;;;;;1.97;1.77;;;;;;;21.71;68.22;99101.03;5076875;28;41411;-76
2023/08/22 03:46:48;;;;;;;1.87;1.67;;;;;;;21.59;68.14;99095.06;5093573;28;39990;-76
2023/08/22 03:49:29;;;;;;;1.50;1.40;;;;;;;21.64;68.44;99102.66;5077004;28;41691;-76
2023/08/22 03:51:56;;;;;;;1.77;1.67;;;;;;;21.61;68.21;99105.69;5093463;28;42908;-76
2023/08/22 03:54:25;;;;;;;1.60;1.50;;;;;;;21.55;68.49;99101.75;5094228;28;43195;-76
2023/08/22 03:56:53;;;;;;;1.80;1.70;;;;;;;21.51;68.99;99090.44;5112523;28;39832;-75
2023/08/22 03:59:20;;;;;;;1.93;1.80;;;;;;;21.57;68.42;99115.09;5109411;28;42738;-76
2023/08/22 04:01:48;;;;;;;1.73;1.57;;;;;;;21.57;68.55;99110.53;5094310;28;42996;-73
2023/08/22 04:04:16;;;;;;;1.50;1.40;;;;;;;21.59;68.84;99103.16;5112493;28;43228;-73
2023/08/22 04:06:44;;;;;;;1.87;1.77;;;;;;;21.61;68.68;99103.84;5094048;28;39794;-74
2023/08/22 04:09:12;;;;;;;2.30;1.87;;;;;;;21.64;68.79;99114.28;5076957;28;40714;-74
2023/08/22 04:11:43;;;;;;;2.00;1.83;;;;;;;21.65;68.99;99113.28;5077170;28;41659;-73
2023/08/22 04:14:11;;;;;;;2.10;1.90;;;;;;;21.66;68.74;99112.28;5076895;28;41168;-73
2023/08/22 04:16:38;;;;;;;2.10;1.90;;;;;;;21.69;68.66;99117.34;5077004;28;39151;-73
2023/08/22 04:19:06;;;;;;;2.07;1.83;;;;;;;21.72;69.36;99108.09;5068574;28;40734;-73
2023/08/22 04:21:33;;;;;;;2.40;1.87;;;;;;;21.76;69.45;99110.31;5076422;28;41603;-73
2023/08/22 04:24:01;;;;;;;2.43;2.23;;;;;;;21.77;69.76;99103.91;5091219;28;42403;-73
2023/08/22 04:26:28;;;;;;;2.57;2.20;;;;;;;21.82;69.93;99109.66;5092574;28;41786;-74
2023/08/22 04:28:58;;;;;;;2.50;2.30;;;;;;;21.84;69.99;99102.28;5075327;28;41798;-73
2023/08/22 04:31:25;;;;;;;2.83;2.30;;;;;;;21.85;70.32;99108.50;5092068;28;43479;-74
2023/08/22 04:33:53;;;;;;;2.83;2.43;;;;;;;21.86;70.44;99111.06;5074963;28;42615;-74
2023/08/22 04:36:21;;;;;;;2.33;2.13;;;;;;;21.88;70.33;99104.66;5075670;28;39383;-73
2023/08/22 04:38:49;;;;;;;2.43;2.23;;;;;;;21.88;70.49;99106.31;5110531;28;41602;-73
2023/08/22 04:41:19;;;;;;;2.73;2.50;;;;;;;21.88;70.33;99114.41;5075305;28;41753;-73
2023/08/22 04:44:11;;;;;;;2.33;2.10;;;;;;;21.93;70.24;99110.38;5099167;28;42248;-73
2023/08/22 04:46:39;;;;;;;3.33;2.30;;;;;;;21.95;70.52;99108.38;5110605;28;40847;-73
2023/08/22 04:49:07;;;;;;;2.30;2.10;;;;;;;22.00;70.51;99111.47;5092085;28;42602;-73
2023/08/22 04:51:34;;;;;;;3.50;2.27;;;;;;;22.03;70.41;99113.84;5092291;28;42771;-73
2023/08/22 04:54:02;;;;;;;2.50;1.90;;;;;;;22.11;70.35;99114.72;5074796;28;41484;-74
2023/08/22 04:56:30;;;;;;;2.00;1.80;;;;;;;22.16;70.12;99106.97;5092466;28;41211;-74
2023/08/22 04:58:57;;;;;;;2.20;2.00;;;;;;;22.21;70.45;99114.59;5092904;28;41795;-73
2023/08/22 05:01:26;;;;;;;2.33;2.13;;;;;;;22.27;70.47;99113.91;5092949;28;41910;-73
2023/08/22 05:03:56;;;;;;;2.33;2.13;;;;;;;22.33;70.33;99110.59;5075892;28;42550;-73
2023/08/22 05:06:24;;;;;;;2.33;2.13;;;;;;;22.36;70.05;99094.06;5076193;28;39783;-73
2023/08/22 05:08:51;;;;;;;2.50;2.30;;;;;;;22.51;69.84;99105.03;5092825;28;40849;-74
2023/08/22 05:11:20;;;;;;;3.57;2.10;;;;;;;22.56;69.90;99106.25;5093052;28;43671;-73
2023/08/22 05:13:47;;;;;;;2.20;2.00;;;;;;;22.64;70.05;99109.97;5092623;28;43040;-73
2023/08/22 05:16:15;;;;;;;2.13;1.93;;;;;;;22.69;69.81;99107.63;5092972;28;41765;-73
2023/08/22 05:18:43;;;;;;;3.30;2.10;;;;;;;22.73;69.96;99106.28;5092699;28;42894;-73
2023/08/22 05:21:12;;;;;;;2.33;2.13;;;;;;;22.76;69.89;99109.50;5092792;28;42814;-73
2023/08/22 05:23:40;;;;;;;3.73;2.30;;;;;;;22.82;69.75;99111.56;5073726;28;42535;-73
2023/08/22 05:26:07;;;;;;;2.63;2.27;;;;;;;22.90;70.00;99116.09;5110160;28;39944;-73
2023/08/22 05:28:35;;;;;;;2.40;2.17;;;;;;;23.00;70.21;99114.06;5091617;28;42660;-74
2023/08/22 05:31:02;;;;;;;2.73;2.43;;;;;;;23.05;70.02;99114.44;5091876;28;43658;-74
2023/08/22 05:33:35;;;;;;;2.30;2.00;;;;;;;23.21;70.16;99117.13;5091709;28;42071;-76
2023/08/22 05:36:04;;;;;;;3.73;2.60;;;;;;;23.42;70.30;99121.16;5092002;28;40071;-77
2023/08/22 05:38:32;;;;;;;2.70;2.20;;;;;;;23.58;69.73;99121.16;5091275;28;41848;-76
2023/08/22 05:41:00;;;;;;;3.07;2.70;;;;;;;23.65;70.17;99116.75;5074928;28;41920;-76
2023/08/22 05:43:45;;;;;;;2.47;2.27;;;;;;;23.76;70.23;99119.09;5109709;27;41497;-79
2023/08/22 05:46:12;;;;;;;2.77;2.57;;;;;;;23.93;69.39;99115.31;5095436;28;40196;-76
2023/08/22 05:48:40;;;;;;;3.67;2.90;;;;;;;24.11;69.00;99111.53;5078332;28;41292;-76
2023/08/22 05:51:09;;;;;;;4.70;3.20;;;;;;;24.20;68.72;99110.47;5078022;28;42899;-77
2023/08/22 05:53:36;;;;;;;5.00;3.10;;;;;;;24.43;68.42;99115.97;5078386;28;41382;-76
2023/08/22 05:56:04;;;;;;;3.23;2.93;;;;;;;24.63;68.07;99118.03;5114714;28;39975;-79
2023/08/22 05:58:34;;;;;;;3.33;3.03;;;;;;;24.80;67.35;99107.94;5061863;28;40709;-77
2023/08/22 06:01:07;;;;;;;4.63;3.40;;;;;;;24.87;67.53;99121.59;5079583;28;41800;-77
2023/08/22 06:03:35;;;;;;;4.13;2.40;;;;;;;24.89;67.44;99127.69;5078691;28;41830;-79
2023/08/22 06:06:04;;;;;;;2.90;2.60;;;;;;;24.91;67.59;99120.22;5096164;28;41042;-79
2023/08/22 06:08:33;;;;;;;3.27;2.97;;;;;;;24.87;67.26;99119.72;5095712;28;42301;-77
2023/08/22 06:11:01;;;;;;;3.13;2.67;;;;;;;25.00;67.39;99127.28;5078949;28;42049;-77
2023/08/22 06:13:29;;;;;;;4.73;3.33;;;;;;;25.13;66.88;99130.25;5095991;28;43065;-77
2023/08/22 06:15:57;;;;;;;3.97;3.20;;;;;;;25.03;66.61;99103.38;5095755;28;40762;-77
2023/08/22 06:18:25;;;;;;;2.80;2.60;;;;;;;25.20;66.57;99114.94;5093336;28;42368;-77
2023/08/22 06:20:52;;;;;;;3.03;2.73;;;;;;;25.32;66.45;99127.03;5094925;28;42099;-77
2023/08/22 06:23:20;;;;;;;3.00;2.80;;;;;;;25.28;66.07;99106.72;5094370;28;42366;-77
2023/08/22 06:25:49;;;;;;;2.70;2.50;;;;;;;25.50;65.84;99128.56;5077580;28;40283;-77
2023/08/22 06:28:18;;;;;;;4.17;2.87;;;;;;;25.63;65.54;99135.06;5077424;28;41215;-77
2023/08/22 06:30:46;;;;;;;4.20;3.10;;;;;;;25.80;65.51;99130.31;5077570;28;43001;-77
2023/08/22 06:33:15;;;;;;;3.50;3.20;;;;;;;26.02;64.74;99132.09;5094515;28;42332;-77
2023/08/22 06:35:46;;;;;;;3.73;3.33;;;;;;;26.19;64.30;99132.75;5094672;28;40365;-79
2023/08/22 06:38:14;;;;;;;4.20;3.80;;;;;;;26.33;63.61;99133.78;5077474;28;41980;-77
2023/08/22 06:40:43;;;;;;;4.00;2.93;;;;;;;26.47;63.38;99135.59;5112600;28;43864;-77
2023/08/22 06:43:15;;;;;;;3.30;3.00;;;;;;;26.61;63.16;99142.88;5077409;28;40934;-77
2023/08/22 06:45:46;;;;;;;3.00;2.70;;;;;;;26.71;62.61;99143.41;5077558;28;40805;-77
2023/08/22 06:48:16;;;;;;;3.20;2.90;;;;;;;26.77;62.59;99142.66;5076983;28;41406;-77
2023/08/22 06:50:43;;;;;;;3.40;3.10;;;;;;;26.86;61.97;99142.53;5094201;28;42639;-77
2023/08/22 06:53:11;;;;;;;2.80;2.57;;;;;;;26.91;61.70;99134.66;5093874;28;42513;-76
2023/08/22 06:55:39;;;;;;;3.27;2.97;;;;;;;26.96;61.62;99134.94;5077922;28;39626;-77
2023/08/22 06:58:07;;;;;;;3.40;3.10;;;;;;;27.15;61.29;99145.16;5113123;28;41611;-77
2023/08/22 07:00:37;;;;;;;3.70;3.23;;;;;;;27.27;60.76;99146.31;5078414;28;43063;-77
2023/08/22 07:03:05;;;;;;;3.80;3.50;;;;;;;27.39;60.17;99125.72;5094689;28;42900;-77
2023/08/22 07:16:55;;;;;;;3.87;3.10;;;;;;;28.18;59.24;99158.16;5092070;28;43001;-77
2023/08/22 07:19:22;;;;;;;3.30;3.00;;;;;;;28.51;58.20;99152.84;5057682;28;39847;-77
2023/08/22 07:21:50;;;;;;;3.47;3.10;;;;;;;28.79;58.21;99161.78;5073946;28;40997;-77
2023/08/22 07:24:18;;;;;;;3.07;2.87;;;;;;;28.77;57.97;99152.94;5073012;28;42505;-77
2023/08/22 07:27:06;;;;;;;3.13;2.90;;;;;;;29.19;57.64;99161.84;4995241;28;43439;-78
2023/08/22 07:29:33;;;;;;;2.90;2.70;;;;;;;29.47;56.57;99165.25;5077455;28;40262;-78
2023/08/22 07:32:02;;;;;;;4.03;3.20;;;;;;;29.86;56.29;99171.75;5073403;28;40676;-78
2023/08/22 07:34:30;;;;;;;3.57;3.20;;;;;;;30.10;55.88;99173.84;5056301;28;42233;-77
2023/08/22 07:36:58;;;;;;;3.20;2.90;;;;;;;30.18;55.40;99162.69;5056110;28;41208;-78
2023/08/22 07:39:27;;;;;;;3.60;3.30;;;;;;;30.34;54.40;99178.63;5091015;28;40654;-78
2023/08/22 07:41:54;;;;;;;4.37;3.90;;;;;;;30.40;54.47;99176.09;5056720;28;41169;-78
2023/08/22 07:44:23;;;;;;;3.03;2.80;;;;;;;30.54;55.03;99155.88;5073080;28;43504;-78
2023/08/22 07:46:51;;;;;;;3.40;3.10;;;;;;;30.69;53.39;99160.00;5056377;28;41148;-78
2023/08/22 07:49:20;;;;;;;4.00;3.33;;;;;;;31.08;52.85;99175.34;5055856;28;40820;-78
2023/08/22 07:51:48;;;;;;;2.93;2.70;;;;;;;31.96;51.29;99177.22;5056267;28;40546;-78
2023/08/22 07:54:16;;;;;;;3.43;3.13;;;;;;;32.64;49.66;99193.59;5073008;28;42310;-78
2023/08/22 07:56:44;;;;;;;3.70;3.40;;;;;;;32.83;47.94;99195.25;5073775;28;42268;-78
2023/08/22 07:59:13;;;;;;;3.70;3.40;;;;;;;32.86;48.88;99172.03;5073674;28;40074;-78
2023/08/22 08:01:41;;;;;;;3.50;3.20;;;;;;;33.44;47.27;99202.44;5073920;28;41090;-78
2023/08/22 08:04:09;;;;;;;3.40;3.00;;;;;;;33.74;47.00;99192.22;5071637;28;43167;-78
2023/08/22 08:15:20;;;;;;;2.50;2.30;;;;;;;33.74;46.32;99197.72;5090423;28;41810;-78
2023/08/22 08:17:47;;;;;;;3.30;2.83;;;;;;;33.88;45.56;99204.66;5072149;28;42961;-78
2023/08/22 08:20:15;;;;;;;3.17;2.60;;;;;;;34.07;45.35;99197.16;5055471;28;41266;-78
2023/08/22 08:22:43;;;;;;;4.17;3.40;;;;;;;34.20;44.62;99207.06;5055447;28;38755;-78
2023/08/22 08:25:11;;;;;;;2.77;2.57;;;;;;;34.32;45.19;99198.84;5055685;28;40303;-78
2023/08/22 08:27:40;;;;;;;3.47;2.60;;;;;;;34.44;43.81;99208.75;5055307;28;41466;-78
2023/08/22 08:30:10;;;;;;;2.70;2.47;;;;;;;34.46;43.68;99212.09;5090388;28;42253;-77
2023/08/22 08:32:39;;;;;;;2.53;2.27;;;;;;;34.55;43.64;99210.63;5054912;28;38252;-78
2023/08/22 08:35:07;;;;;;;3.00;2.77;;;;;;;34.87;43.18;99218.47;5072130;28;40963;-78
2023/08/22 08:37:35;;;;;;;2.80;2.50;;;;;;;35.21;41.85;99202.91;5090496;28;42713;-78
2023/08/22 08:40:05;;;;;;;3.03;2.80;;;;;;;35.68;40.75;99221.94;5090203;28;42160;-79
2023/08/22 08:42:36;;;;;;;3.40;3.10;;;;;;;36.41;39.07;99237.47;5072393;28;40007;-78
2023/08/22 08:45:04;;;;;;;3.00;2.80;;;;;;;36.88;38.09;99235.94;5072736;28;42566;-78
2023/08/22 08:47:33;;;;;;;3.35;2.63;;;;;;;36.94;37.64;99240.44;5054776;28;42434;-78
2023/08/22 08:50:04;;;;;;;3.38;3.08;;;;;;;37.25;36.77;99244.41;5072093;28;42469;-78
2023/08/22 08:52:32;;;;;;;3.70;2.13;;;;;;;37.94;34.71;99244.53;5055182;28;40182;-79
2023/08/22 08:55:01;;;;;;;3.88;1.92;;;;;;;38.82;33.16;99246.81;5073169;28;41636;-78
2023/08/22 08:57:28;;;;;;;3.58;2.50;;;;;;;40.24;31.65;99256.22;5090775;28;42690;-79
2023/08/22 08:59:56;;;;;;;2.80;2.60;;;;;;;40.98;31.01;99266.63;5072949;28;42952;-78
2023/08/22 09:02:24;;;;;;;2.40;1.98;;;;;;;40.86;30.69;99264.16;5055971;28;40997;-79
2023/08/22 09:04:51;;;;;;;2.75;1.85;;;;;;;41.15;30.15;99269.91;5073027;28;41075;-78
2023/08/22 09:07:21;;;;;;;2.10;2.00;;;;;;;42.26;28.43;99282.22;5055993;28;42827;-79
2023/08/22 09:09:48;;;;;;;2.22;2.00;;;;;;;43.30;27.59;99267.69;5073245;28;43049;-78
2023/08/22 09:12:16;;;;;;;2.15;1.95;;;;;;;44.34;26.52;99276.66;5056292;28;40190;-78
2023/08/22 09:14:46;;;;;;;3.35;2.10;;;;;;;44.93;25.61;99276.94;5090951;28;41825;-78
2023/08/22 09:17:15;;;;;;;1.80;1.70;;;;;;;44.63;24.92;99292.34;5054276;28;43020;-78
2023/08/22 09:19:43;;;;;;;1.90;1.80;;;;;;;44.21;25.28;99277.44;5074495;28;43162;-79
2023/08/22 09:22:14;;;;;;;2.10;1.95;;;;;;;44.25;25.14;99270.13;5075217;28;39643;-78
2023/08/22 09:24:53;;;;;;;3.35;1.90;;;;;;;44.55;24.81;99270.69;5072360;28;42696;-79
2023/08/22 09:27:22;;;;;;;2.30;1.80;;;;;;;44.75;24.58;99273.13;5057767;28;42535;-78
2023/08/22 09:29:52;;;;;;;2.00;1.80;;;;;;;45.13;24.41;99268.16;5075102;28;43212;-78
2023/08/22 09:32:27;;;;;;;1.75;1.65;;;;;;;45.91;24.06;99246.47;5075419;28;40315;-78
2023/08/22 09:34:56;;;;;;;2.05;1.88;;;;;;;46.63;23.25;99269.47;5090234;28;42777;-79
2023/08/22 09:37:31;;;;;;;2.97;2.15;;;;;;;47.18;22.52;99267.06;5074994;28;42719;-79
2023/08/22 09:40:00;;;;;;;2.25;2.05;;;;;;;46.83;23.31;99260.53;5058017;28;41462;-79
2023/08/22 09:42:29;;;;;;;2.78;2.10;;;;;;;46.26;23.73;99267.13;5074787;28;40316;-79
2023/08/22 09:44:58;;;;;;;2.20;2.10;;;;;;;45.20;24.95;99259.34;5075527;28;42137;-79
2023/08/22 09:47:30;;;;;;;2.22;2.05;;;;;;;44.08;25.56;99249.50;5074864;28;42609;-81
2023/08/22 09:50:01;;;;;;;2.88;2.25;;;;;;;43.26;26.91;99216.44;5072496;28;42456;-78
2023/08/22 09:52:29;;;;;;;2.47;2.28;;;;;;;43.08;26.54;99247.91;5073375;28;39975;-78
2023/08/22 09:55:00;;;;;;;2.67;2.17;;;;;;;42.71;27.40;99241.09;5093807;28;42085;-78
2023/08/22 09:57:28;;;;;;;2.47;2.28;;;;;;;42.24;28.03;99227.94;5075355;28;41922;-79
2023/08/22 09:59:56;;;;;;;2.47;2.20;;;;;;;41.62;28.09;99231.53;5076080;28;41479;-79
2023/08/22 10:02:24;;;;;;;2.10;2.00;;;;;;;41.03;28.43;99229.66;5076125;28;40506;-77
2023/08/22 10:04:53;;;;;;;2.25;2.05;;;;;;;40.53;29.01;99228.72;5076293;28;42805;-79
2023/08/22 10:07:20;;;;;;;2.40;2.20;;;;;;;40.17;29.35;99222.38;5059072;28;41657;-78
2023/08/22 10:09:48;;;;;;;2.17;2.05;;;;;;;39.80;29.55;99217.13;5093796;28;42992;-79
2023/08/22 10:12:18;;;;;;;2.40;2.20;;;;;;;39.65;31.14;99194.94;5093985;28;40080;-79
2023/08/22 10:14:51;;;;;;;2.25;2.05;;;;;;;39.51;30.70;99214.06;5058946;28;40543;-78
2023/08/22 10:17:20;;;;;;;3.85;2.40;;;;;;;39.51;31.35;99197.41;5058240;28;43148;-78
2023/08/22 10:19:48;;;;;;;2.50;2.30;;;;;;;39.75;30.83;99203.25;5075142;28;41704;-78
2023/08/22 10:22:16;;;;;;;2.22;2.05;;;;;;;39.50;30.99;99207.69;5057588;28;39834;-79
2023/08/22 10:24:47;;;;;;;2.22;2.03;;;;;;;39.21;31.11;99212.03;5056898;28;42109;-79
2023/08/22 10:27:19;;;;;;;2.50;2.30;;;;;;;39.01;30.73;99192.59;5057748;28;41642;-78
2023/08/22 10:30:08;;;;;;;2.75;1.98;;;;;;;38.96;31.96;99206.38;5088925;28;42944;-79
2023/08/22 10:32:35;;;;;;;2.55;2.35;;;;;;;38.96;31.80;99195.31;5074401;28;40033;-77
2023/08/22 10:35:27;;;;;;;2.53;2.33;;;;;;;39.32;31.66;99194.31;5057584;28;42022;-79
2023/08/22 10:37:56;;;;;;;2.72;2.20;;;;;;;40.21;31.33;99185.44;5072699;28;43902;-79
2023/08/22 10:40:29;;;;;;;2.70;2.50;;;;;;;41.68;28.73;99208.94;5074359;28;43153;-79
2023/08/22 10:43:14;;;;;;;2.53;2.22;;;;;;;43.21;27.28;99227.66;5074312;28;40140;-79
2023/08/22 10:45:52;;;;;;;2.60;2.08;;;;;;;44.27;25.43;99231.50;5071031;28;41901;-79
2023/08/22 10:48:22;;;;;;;1.98;1.88;;;;;;;45.01;25.44;99232.28;5056997;28;42726;-79
2023/08/22 10:50:52;;;;;;;2.20;2.10;;;;;;;45.20;24.79;99222.97;5092364;28;42271;-78
2023/08/22 10:53:25;;;;;;;2.60;2.00;;;;;;;44.72;25.15;99242.97;5074477;28;39188;-78
2023/08/22 10:55:54;;;;;;;2.25;2.05;;;;;;;44.55;25.62;99231.56;5072437;28;42073;-78
2023/08/22 10:58:40;;;;;;;2.10;2.00;;;;;;;44.87;25.58;99236.28;5075154;28;42851;-80
2023/08/22 11:01:10;;;;;;;2.35;2.15;;;;;;;44.55;26.07;99226.00;5058007;28;42472;-79
2023/08/22 11:03:38;;;;;;;2.40;2.20;;;;;;;44.60;25.33;99226.72;5057956;28;39193;-79
2023/08/22 11:06:18;;;;;;;2.40;2.20;;;;;;;45.06;25.56;99221.00;5075180;28;40644;-80
2023/08/22 11:08:46;;;;;;;1.98;1.88;;;;;;;44.87;25.57;99217.53;5057855;28;41689;-80
2023/08/22 11:11:15;;;;;;;2.67;2.08;;;;;;;44.45;26.05;99210.25;5074789;28;43278;-79
2023/08/22 11:13:45;;;;;;;3.88;2.58;;;;;;;44.38;25.23;99221.88;5092601;28;42356;-79
2023/08/22 11:16:14;;;;;;;2.60;2.28;;;;;;;44.14;25.82;99182.09;5092678;28;41963;-78
2023/08/22 11:18:43;;;;;;;2.08;1.98;;;;;;;44.09;26.23;99207.31;5074306;28;43112;-78
2023/08/22 11:21:11;;;;;;;3.50;2.53;;;;;;;43.88;26.82;99206.81;5072678;28;41689;-79
2023/08/22 11:23:40;;;;;;;4.57;2.40;;;;;;;43.38;27.20;99202.88;5056690;28;39139;-79
2023/08/22 11:26:09;;;;;;;2.45;1.95;;;;;;;43.02;27.59;99199.75;5056768;28;40575;-79
2023/08/22 11:28:37;;;;;;;2.63;2.42;;;;;;;42.75;27.56;99194.78;5073844;28;42689;-79
2023/08/22 11:31:06;;;;;;;2.35;2.15;;;;;;;42.76;27.86;99202.03;5056822;28;41757;-79
2023/08/22 11:33:36;;;;;;;3.22;1.98;;;;;;;42.96;27.93;99187.84;5073682;28;40309;-79
2023/08/22 11:36:04;;;;;;;2.70;2.45;;;;;;;43.98;26.22;99194.66;5073352;28;41928;-79
2023/08/22 11:38:35;;;;;;;2.65;2.22;;;;;;;45.03;26.30;99176.88;5056417;28;42954;-78
2023/08/22 11:41:04;;;;;;;4.72;2.50;;;;;;;45.09;24.87;99203.59;5073686;28;41430;-79
2023/08/22 11:43:32;;;;;;;2.20;2.10;;;;;;;44.74;26.22;99184.81;5091610;28;40702;-79
2023/08/22 11:46:03;;;;;;;3.03;2.35;;;;;;;44.61;26.12;99180.06;5056343;28;40213;-80
2023/08/22 11:48:33;;;;;;;2.22;2.05;;;;;;;44.72;25.82;99196.28;5090749;28;43632;-81
2023/08/22 11:51:00;;;;;;;2.53;2.25;;;;;;;44.95;26.10;99183.22;5056384;28;41201;-80
2023/08/22 11:53:30;;;;;;;2.60;2.40;;;;;;;45.43;25.59;99182.69;5073347;28;39241;-79
2023/08/22 11:55:58;;;;;;;2.25;2.15;;;;;;;46.30;24.15;99196.16;5074470;28;42335;-80
2023/08/22 11:58:25;;;;;;;2.08;1.98;;;;;;;47.39;23.26;99197.13;5092097;28;42961;-80
2023/08/22 12:00:55;;;;;;;2.63;2.42;;;;;;;47.97;22.62;99200.56;5074063;28;42207;-79
2023/08/22 12:03:22;;;;;;;2.88;2.40;;;;;;;48.56;21.78;99188.31;5073829;28;40549;-80